createdAt,value
2023-04-04T00:00:11.693Z,1.32
2023-04-04T00:02:38.477Z,1.40
2023-04-04T00:05:06.745Z,1.28
2023-04-04T00:07:33.681Z,1.25
2023-04-04T00:10:00.405Z,1.16
2023-04-04T00:12:28.578Z,1.21
2023-04-04T00:14:56.582Z,1.22
2023-04-04T00:17:23.242Z,1.20
2023-04-04T00:19:49.855Z,1.10
2023-04-04T00:22:16.454Z,1.10
2023-04-04T00:24:43.099Z,1.10
2023-04-04T00:27:09.734Z,1.07
2023-04-04T00:29:36.341Z,1.06
2023-04-04T00:32:03.593Z,1.07
2023-04-04T00:34:30.235Z,1.08
2023-04-04T00:36:56.984Z,1.09
2023-04-04T00:39:23.606Z,1.05
2023-04-04T00:41:50.432Z,0.95
2023-04-04T00:44:17.168Z,0.91
2023-04-04T00:46:44.563Z,0.91
2023-04-04T00:49:11.199Z,0.95
2023-04-04T00:51:37.859Z,0.87
2023-04-04T00:54:04.620Z,0.83
2023-04-04T00:56:35.075Z,0.85
2023-04-04T00:59:01.949Z,0.90
2023-04-04T01:01:28.702Z,0.84
2023-04-04T01:03:55.460Z,0.95
2023-04-04T01:06:22.132Z,1.03
2023-04-04T01:08:51.035Z,0.81
2023-04-04T01:11:17.947Z,0.95
2023-04-04T01:13:45.192Z,0.78
2023-04-04T01:16:11.951Z,0.80
2023-04-04T01:18:41.415Z,0.74
2023-04-04T01:21:11.694Z,0.84
2023-04-04T01:23:41.446Z,0.77
2023-04-04T01:26:08.195Z,0.75
2023-04-04T01:28:34.841Z,0.72
2023-04-04T01:31:02.360Z,0.69
2023-04-04T01:33:36.708Z,0.69
2023-04-04T01:36:19.351Z,0.68
2023-04-04T01:39:09.821Z,0.84
2023-04-04T01:41:37.212Z,0.55
2023-04-04T01:44:04.117Z,0.65
2023-04-04T01:46:30.937Z,0.52
2023-04-04T01:48:57.647Z,0.49
2023-04-04T01:51:24.585Z,0.50
2023-04-04T01:53:51.204Z,0.48
2023-04-04T01:56:17.868Z,0.45
2023-04-04T01:58:44.503Z,0.41
2023-04-04T02:01:11.160Z,0.37
2023-04-04T02:03:37.796Z,0.43
2023-04-04T02:06:04.579Z,0.43
2023-04-04T02:08:31.195Z,0.35
2023-04-04T02:10:58.553Z,0.39
2023-04-04T02:13:25.390Z,0.45
2023-04-04T02:15:52.160Z,0.52
2023-04-04T02:18:18.875Z,0.37
2023-04-04T02:20:45.592Z,0.32
2023-04-04T02:23:12.281Z,0.36
2023-04-04T02:25:38.933Z,0.45
2023-04-04T02:28:05.548Z,0.35
2023-04-04T02:30:32.143Z,0.37
2023-04-04T02:32:58.857Z,0.27
2023-04-04T02:35:25.520Z,0.43
2023-04-04T02:37:52.135Z,0.27
2023-04-04T02:40:18.837Z,0.28
2023-04-04T02:42:45.474Z,0.23
2023-04-04T02:45:12.922Z,0.39
2023-04-04T02:47:39.614Z,0.31
2023-04-04T02:50:06.886Z,0.21
2023-04-04T02:52:33.550Z,0.21
2023-04-04T02:55:00.197Z,0.21
2023-04-04T02:57:27.149Z,0.16
2023-04-04T02:59:53.834Z,0.23
2023-04-04T03:02:20.931Z,0.00
2023-04-04T03:04:47.726Z,0.06
2023-04-04T03:07:14.395Z,0.14
2023-04-04T03:09:41.074Z,-0.06
2023-04-04T03:12:07.724Z,-0.04
2023-04-04T03:14:34.338Z,-0.06
2023-04-04T03:17:01.015Z,-0.12
2023-04-04T03:19:27.858Z,0.10
2023-04-04T03:21:54.571Z,0.01
2023-04-04T03:24:21.983Z,-0.08
2023-04-04T03:26:48.616Z,-0.15
2023-04-04T03:29:15.301Z,0.12
2023-04-04T03:31:42.001Z,-0.06
2023-04-04T03:34:08.680Z,-0.03
2023-04-04T03:36:35.390Z,-0.07
2023-04-04T03:39:01.994Z,0.01
2023-04-04T03:41:28.638Z,-0.21
2023-04-04T03:43:55.260Z,-0.22
2023-04-04T03:46:22.000Z,-0.26
2023-04-04T03:48:48.643Z,-0.37
2023-04-04T03:51:15.334Z,-0.28
2023-04-04T03:53:41.998Z,-0.23
2023-04-04T03:56:09.708Z,-0.46
2023-04-04T03:58:36.718Z,-0.51
2023-04-04T04:01:03.342Z,-0.52
2023-04-04T04:03:29.999Z,-0.45
2023-04-04T04:05:56.690Z,-0.40
2023-04-04T04:08:24.757Z,-0.34
2023-04-04T04:10:52.342Z,-0.07
2023-04-04T04:13:18.991Z,0.10
2023-04-04T04:18:12.329Z,-0.09
2023-04-04T04:20:39.174Z,-0.21
2023-04-04T04:23:05.934Z,-0.24
2023-04-04T04:25:32.552Z,-0.25
2023-04-04T04:27:59.191Z,-0.51
2023-04-04T04:30:26.022Z,-0.49
2023-04-04T04:32:52.675Z,-0.21
2023-04-04T04:35:19.312Z,-0.44
2023-04-04T04:37:46.011Z,-0.61
2023-04-04T04:40:12.732Z,-0.56
2023-04-04T04:42:44.235Z,-0.76
2023-04-04T04:45:11.258Z,-0.71
2023-04-04T04:47:37.997Z,-0.58
2023-04-04T04:50:05.177Z,-0.66
2023-04-04T04:52:31.838Z,-0.61
2023-04-04T04:54:58.450Z,-0.79
2023-04-04T04:57:25.143Z,-0.77
2023-04-04T04:59:51.750Z,-0.81
2023-04-04T05:02:18.443Z,-0.92
2023-04-04T05:04:45.268Z,-0.89
2023-04-04T05:07:11.984Z,-0.94
2023-04-04T05:09:38.646Z,-0.87
2023-04-04T05:12:05.341Z,-0.98
2023-04-04T05:14:31.964Z,-0.94
2023-04-04T05:16:58.580Z,-1.00
2023-04-04T05:19:25.287Z,-0.88
2023-04-04T05:21:51.908Z,-0.92
2023-04-04T05:24:18.557Z,-0.94
2023-04-04T05:26:45.293Z,-1.03
2023-04-04T05:29:11.971Z,-1.06
2023-04-04T05:31:38.733Z,-1.11
2023-04-04T05:34:05.621Z,-0.91
2023-04-04T05:36:32.329Z,-0.96
2023-04-04T05:38:58.992Z,-1.04
2023-04-04T05:41:25.578Z,-0.90
2023-04-04T05:43:52.226Z,-0.86
2023-04-04T05:46:18.873Z,-0.92
2023-04-04T05:48:45.541Z,-0.99
2023-04-04T05:51:12.405Z,-0.95
2023-04-04T05:53:39.082Z,-1.04
2023-04-04T05:56:05.823Z,-1.00
2023-04-04T05:58:32.536Z,-0.99
2023-04-04T06:00:59.213Z,-1.05
2023-04-04T06:03:25.957Z,-1.00
2023-04-04T06:05:53.183Z,-1.08
2023-04-04T06:08:20.137Z,-1.04
2023-04-04T06:10:47.052Z,-0.97
2023-04-04T06:13:13.773Z,-0.83
2023-04-04T06:15:40.456Z,-0.83
2023-04-04T06:18:07.378Z,-0.76
2023-04-04T06:20:34.071Z,-0.75
2023-04-04T06:23:00.666Z,-0.73
2023-04-04T06:25:27.575Z,-0.55
2023-04-04T06:27:54.179Z,-0.79
2023-04-04T06:30:21.067Z,-0.78
2023-04-04T06:32:47.724Z,-0.71
2023-04-04T06:35:14.377Z,-0.84
2023-04-04T06:37:41.069Z,-0.82
2023-04-04T06:40:08.322Z,-0.80
2023-04-04T06:42:34.990Z,-0.74
2023-04-04T06:45:01.613Z,-0.73
2023-04-04T06:47:28.316Z,-0.65
2023-04-04T06:49:54.909Z,-0.62
2023-04-04T06:52:21.545Z,-0.64
2023-04-04T06:54:48.161Z,-0.42
2023-04-04T06:57:14.812Z,-0.42
2023-04-04T06:59:43.247Z,-0.45
2023-04-04T07:02:11.238Z,-0.36
2023-04-04T07:04:38.072Z,-0.38
2023-04-04T07:07:04.689Z,-0.34
2023-04-04T07:09:31.392Z,-0.33
2023-04-04T07:11:58.125Z,-0.16
2023-04-04T07:14:24.752Z,-0.05
2023-04-04T07:16:52.056Z,0.06
2023-04-04T07:19:18.736Z,0.84
2023-04-04T07:21:45.426Z,1.63
2023-04-04T07:24:12.072Z,2.19
2023-04-04T07:26:38.671Z,1.40
2023-04-04T07:29:05.370Z,1.62
2023-04-04T07:31:32.308Z,1.85
2023-04-04T07:34:00.224Z,2.12
2023-04-04T07:36:27.983Z,1.85
2023-04-04T07:38:54.660Z,2.01
2023-04-04T07:41:21.980Z,1.63
2023-04-04T07:43:49.059Z,2.08
2023-04-04T07:46:15.962Z,2.88
2023-04-04T07:48:44.060Z,2.39
2023-04-04T07:51:10.696Z,2.53
2023-04-04T07:53:37.299Z,2.93
2023-04-04T07:56:03.966Z,3.45
2023-04-04T07:58:30.657Z,2.98
2023-04-04T08:00:57.265Z,3.72
2023-04-04T08:03:24.193Z,2.45
2023-04-04T08:05:51.167Z,2.57
2023-04-04T08:08:17.835Z,3.01
2023-04-04T08:10:47.461Z,2.72
2023-04-04T08:13:14.091Z,2.65
2023-04-04T08:15:41.478Z,2.34
2023-04-04T08:18:08.158Z,2.12
2023-04-04T08:20:36.026Z,2.53
2023-04-04T08:23:03.777Z,2.09
2023-04-04T08:25:30.517Z,2.47
2023-04-04T08:27:57.202Z,2.82
2023-04-04T08:30:23.835Z,3.22
2023-04-04T08:32:50.454Z,3.75
2023-04-04T08:35:17.292Z,3.50
2023-04-04T08:37:45.177Z,3.56
2023-04-04T08:40:12.283Z,3.24
2023-04-04T08:42:41.650Z,3.67
2023-04-04T08:45:09.677Z,3.43
2023-04-04T08:47:39.678Z,3.17
2023-04-04T08:50:07.712Z,3.05
2023-04-04T08:52:38.913Z,3.52
2023-04-04T08:55:06.211Z,3.25
2023-04-04T08:57:32.937Z,3.24
2023-04-04T09:00:00.295Z,3.12
2023-04-04T09:02:34.089Z,3.06
2023-04-04T09:05:06.410Z,3.25
2023-04-04T09:07:36.444Z,3.63
2023-04-04T09:10:05.132Z,3.65
2023-04-04T09:12:37.382Z,3.37
2023-04-04T09:15:04.471Z,3.85
2023-04-04T09:17:31.236Z,3.88
2023-04-04T09:20:02.096Z,3.25
2023-04-04T09:22:28.800Z,3.98
2023-04-04T09:24:56.694Z,3.51
2023-04-04T09:27:23.398Z,3.71
2023-04-04T09:29:50.071Z,3.58
2023-04-04T09:32:17.363Z,4.17
2023-04-04T09:34:44.740Z,3.98
2023-04-04T09:37:11.490Z,3.52
2023-04-04T09:39:39.476Z,3.87
2023-04-04T09:42:06.716Z,3.97
2023-04-04T09:44:33.569Z,3.82
2023-04-04T09:47:30.383Z,4.15
2023-04-04T09:50:01.432Z,3.56
2023-04-04T09:52:32.191Z,3.58
2023-04-04T09:55:00.595Z,4.00
2023-04-04T09:57:32.798Z,4.22
2023-04-04T10:00:03.751Z,4.22
2023-04-04T10:02:31.454Z,4.57
2023-04-04T10:05:05.968Z,4.76
2023-04-04T10:07:33.272Z,4.16
2023-04-04T10:10:06.607Z,4.06
2023-04-04T10:12:33.366Z,4.26
2023-04-04T10:15:01.340Z,4.35
2023-04-04T10:17:39.252Z,4.29
2023-04-04T10:20:08.877Z,4.45
2023-04-04T10:22:37.151Z,4.88
2023-04-04T10:25:05.103Z,4.88
2023-04-04T10:27:32.381Z,5.17
2023-04-04T10:30:00.391Z,5.27
2023-04-04T10:32:37.985Z,5.49
2023-04-04T10:35:08.960Z,4.97
2023-04-04T10:37:42.904Z,4.50
2023-04-04T10:40:17.300Z,4.54
2023-04-04T10:42:47.740Z,4.98
2023-04-04T10:45:20.986Z,5.37
2023-04-04T10:47:49.080Z,4.78
2023-04-04T10:50:15.869Z,5.05
2023-04-04T10:52:45.545Z,5.20
2023-04-04T10:55:14.146Z,5.74
2023-04-04T10:57:43.380Z,5.61
2023-04-04T11:00:13.937Z,5.44
2023-04-04T11:02:52.838Z,5.25
2023-04-04T11:05:39.184Z,5.38
2023-04-04T11:08:11.002Z,5.18
2023-04-04T11:10:42.020Z,5.30
2023-04-04T11:13:20.202Z,5.38
2023-04-04T11:16:01.191Z,5.32
2023-04-04T11:18:39.632Z,5.57
2023-04-04T11:21:13.534Z,5.74
2023-04-04T11:23:48.951Z,5.97
2023-04-04T11:26:27.976Z,5.76
2023-04-04T11:28:58.627Z,6.06
2023-04-04T11:31:33.092Z,5.70
2023-04-04T11:34:04.007Z,5.70
2023-04-04T11:36:36.362Z,5.85
2023-04-04T11:39:22.192Z,6.00
2023-04-04T11:41:48.741Z,6.32
2023-04-04T11:44:17.059Z,6.59
2023-04-04T11:46:45.045Z,6.28
2023-04-04T11:49:11.942Z,6.40
2023-04-04T11:51:42.531Z,6.71
2023-04-04T11:54:17.108Z,6.53
2023-04-04T11:56:44.604Z,6.33
2023-04-04T11:59:18.982Z,6.85
2023-04-04T12:01:46.288Z,6.73
2023-04-04T12:04:20.909Z,6.31
2023-04-04T12:06:51.204Z,6.84
2023-04-04T12:09:18.280Z,6.92
2023-04-04T12:11:46.612Z,6.40
2023-04-04T12:14:21.351Z,6.61
2023-04-04T12:16:49.561Z,7.12
2023-04-04T12:19:18.070Z,7.01
2023-04-04T12:21:46.010Z,7.20
2023-04-04T12:24:14.052Z,6.95
2023-04-04T12:26:43.813Z,6.86
2023-04-04T12:29:13.543Z,7.28
2023-04-04T12:31:44.365Z,6.61
2023-04-04T12:34:18.926Z,6.84
2023-04-04T12:36:51.491Z,6.88
2023-04-04T12:39:20.667Z,6.98
2023-04-04T12:41:53.195Z,7.20
2023-04-04T12:44:37.413Z,7.62
2023-04-04T12:47:08.945Z,7.63
2023-04-04T12:49:38.573Z,7.33
2023-04-04T12:52:06.873Z,7.02
2023-04-04T12:54:38.245Z,7.37
2023-04-04T12:57:06.292Z,7.10
2023-04-04T12:59:35.376Z,7.32
2023-04-04T13:02:07.185Z,7.86
2023-04-04T13:04:34.249Z,7.70
2023-04-04T13:07:01.570Z,7.15
2023-04-04T13:09:28.219Z,7.12
2023-04-04T13:11:58.909Z,7.40
2023-04-04T13:14:27.110Z,7.01
2023-04-04T13:17:06.718Z,7.32
2023-04-04T13:19:33.438Z,7.02
2023-04-04T13:22:02.313Z,7.35
2023-04-04T13:24:28.965Z,7.61
2023-04-04T13:26:55.642Z,7.91
2023-04-04T13:29:22.271Z,8.12
2023-04-04T13:31:48.906Z,7.80
2023-04-04T13:34:15.576Z,8.28
2023-04-04T13:36:42.178Z,7.59
2023-04-04T13:39:08.930Z,7.32
2023-04-04T13:41:35.535Z,7.84
2023-04-04T13:44:02.155Z,8.13
2023-04-04T13:46:28.761Z,7.38
2023-04-04T13:48:55.378Z,7.43
2023-04-04T13:51:22.029Z,7.54
2023-04-04T13:53:48.621Z,7.79
2023-04-04T13:56:18.861Z,8.16
2023-04-04T13:58:45.888Z,8.47
2023-04-04T14:01:12.688Z,8.04
2023-04-04T14:03:39.425Z,7.67
2023-04-04T14:06:10.442Z,7.70
2023-04-04T14:08:37.812Z,8.04
2023-04-04T14:11:04.525Z,7.71
2023-04-04T14:13:31.167Z,7.64
2023-04-04T14:15:57.782Z,7.43
2023-04-04T14:18:24.424Z,7.62
2023-04-04T14:20:51.083Z,7.77
2023-04-04T14:23:17.726Z,7.87
2023-04-04T14:25:44.382Z,8.05
2023-04-04T14:28:11.129Z,7.90
2023-04-04T14:30:37.748Z,8.12
2023-04-04T14:33:04.459Z,8.57
2023-04-04T14:35:31.208Z,8.32
2023-04-04T14:37:57.793Z,7.70
2023-04-04T14:40:24.425Z,7.86
2023-04-04T14:42:51.097Z,8.28
2023-04-04T14:45:18.063Z,8.45
2023-04-04T14:47:44.763Z,8.15
2023-04-04T14:50:11.458Z,7.93
2023-04-04T14:52:38.074Z,7.95
2023-04-04T14:55:05.220Z,8.03
2023-04-04T14:57:32.221Z,8.26
2023-04-04T15:00:02.332Z,8.62
2023-04-04T15:02:29.119Z,8.06
2023-04-04T15:04:55.892Z,8.13
2023-04-04T15:07:22.550Z,7.62
2023-04-04T15:09:49.188Z,7.88
2023-04-04T15:12:15.881Z,7.55
2023-04-04T15:14:42.523Z,8.07
2023-04-04T15:17:09.192Z,8.32
2023-04-04T15:19:35.807Z,7.96
2023-04-04T15:22:02.411Z,7.91
2023-04-04T15:24:29.076Z,8.18
2023-04-04T15:26:56.501Z,8.26
2023-04-04T15:29:24.306Z,8.32
2023-04-04T15:31:50.970Z,8.19
2023-04-04T15:34:17.740Z,8.15
2023-04-04T15:36:44.537Z,8.34
2023-04-04T15:39:11.242Z,7.72
2023-04-04T15:41:38.585Z,7.50
2023-04-04T15:44:05.502Z,7.48
2023-04-04T15:46:32.207Z,7.53
2023-04-04T15:48:58.892Z,7.64
2023-04-04T15:51:25.592Z,7.93
2023-04-04T15:53:55.260Z,7.97
2023-04-04T15:56:22.046Z,7.82
2023-04-04T15:58:49.314Z,7.63
2023-04-04T16:01:16.282Z,8.15
2023-04-04T16:03:43.425Z,7.82
2023-04-04T16:06:10.165Z,8.10
2023-04-04T16:08:36.837Z,8.51
2023-04-04T16:11:03.612Z,8.02
2023-04-04T16:13:30.257Z,7.64
2023-04-04T16:15:56.926Z,7.72
2023-04-04T16:18:23.706Z,7.45
2023-04-04T16:20:50.364Z,7.65
2023-04-04T16:23:17.339Z,8.10
2023-04-04T16:25:44.501Z,7.26
2023-04-04T16:28:11.083Z,7.42
2023-04-04T16:30:37.907Z,7.52
2023-04-04T16:33:04.714Z,7.88
2023-04-04T16:35:31.388Z,7.49
2023-04-04T16:37:58.238Z,7.13
2023-04-04T16:40:24.901Z,7.42
2023-04-04T16:42:51.548Z,7.80
2023-04-04T16:45:20.290Z,7.54
2023-04-04T16:47:46.976Z,7.21
2023-04-04T16:50:13.693Z,7.31
2023-04-04T16:52:40.371Z,7.41
2023-04-04T16:55:08.056Z,7.05
2023-04-04T16:57:35.281Z,6.73
2023-04-04T17:00:01.987Z,7.21
2023-04-04T17:02:28.858Z,7.23
2023-04-04T17:04:55.604Z,7.37
2023-04-04T17:07:22.395Z,7.01
2023-04-04T17:09:49.026Z,7.05
2023-04-04T17:12:15.737Z,6.70
2023-04-04T17:14:42.365Z,6.57
2023-04-04T17:17:09.045Z,6.67
2023-04-04T17:19:35.716Z,6.79
2023-04-04T17:22:02.899Z,6.62
2023-04-04T17:24:29.605Z,6.69
2023-04-04T17:26:57.016Z,6.66
2023-04-04T17:29:23.925Z,6.56
2023-04-04T17:31:50.609Z,6.27
2023-04-04T17:34:17.349Z,6.11
2023-04-04T17:36:44.093Z,6.25
2023-04-04T17:39:12.810Z,6.31
2023-04-04T17:41:39.590Z,6.13
2023-04-04T17:44:06.251Z,5.98
2023-04-04T17:46:32.980Z,5.88
2023-04-04T17:49:02.000Z,5.95
2023-04-04T17:51:28.650Z,5.66
2023-04-04T17:53:58.325Z,5.60
2023-04-04T17:56:25.246Z,5.48
2023-04-04T17:58:52.753Z,5.46
2023-04-04T18:01:20.457Z,5.40
2023-04-04T18:03:47.297Z,5.28
2023-04-04T18:06:15.179Z,5.22
2023-04-04T18:08:42.209Z,5.16
2023-04-04T18:11:10.233Z,5.06
2023-04-04T18:13:37.092Z,5.08
2023-04-04T18:16:04.344Z,4.98
2023-04-04T18:18:31.028Z,4.97
2023-04-04T18:20:57.761Z,4.91
2023-04-04T18:23:24.400Z,4.88
2023-04-04T18:25:51.121Z,4.81
2023-04-04T18:28:37.630Z,4.84
2023-04-04T18:31:23.096Z,4.85
2023-04-04T18:33:49.774Z,4.77
2023-04-04T18:36:16.930Z,4.92
2023-04-04T18:38:44.954Z,4.86
2023-04-04T18:41:11.723Z,4.71
2023-04-04T18:43:38.408Z,4.80
2023-04-04T18:46:05.742Z,4.72
2023-04-04T18:48:33.597Z,4.72
2023-04-04T18:51:00.436Z,4.59
2023-04-04T18:53:27.105Z,4.57
2023-04-04T18:55:54.863Z,4.62
2023-04-04T18:58:21.478Z,4.58
2023-04-04T19:00:48.586Z,4.54
2023-04-04T19:03:15.294Z,4.51
2023-04-04T19:05:47.610Z,4.45
2023-04-04T19:08:16.338Z,4.50
2023-04-04T19:10:48.932Z,4.47
2023-04-04T19:13:20.905Z,4.45
2023-04-04T19:15:47.576Z,4.47
2023-04-04T19:18:14.323Z,4.44
2023-04-04T19:20:41.466Z,4.54
2023-04-04T19:23:08.091Z,4.48
2023-04-04T19:25:34.684Z,4.32
2023-04-04T19:28:01.323Z,4.41
2023-04-04T19:30:44.394Z,4.52
2023-04-04T19:33:15.734Z,4.36
2023-04-04T19:36:00.712Z,4.30
2023-04-04T19:38:32.365Z,4.23
2023-04-04T19:41:01.716Z,4.31
2023-04-04T19:43:30.254Z,4.18
2023-04-04T19:46:00.542Z,4.17
2023-04-04T19:48:47.130Z,4.13
2023-04-04T19:51:19.438Z,4.20
2023-04-04T19:53:55.363Z,4.10
2023-04-04T19:56:24.536Z,4.25
2023-04-04T19:58:54.266Z,4.21
2023-04-04T20:01:23.780Z,3.97
2023-04-04T20:03:50.681Z,3.94
2023-04-04T20:06:28.659Z,4.12
2023-04-04T20:08:56.989Z,4.21
2023-04-04T20:11:38.016Z,3.88
2023-04-04T20:14:09.371Z,3.79
2023-04-04T20:16:36.647Z,3.98
2023-04-04T20:19:05.801Z,3.93
2023-04-04T20:21:33.158Z,4.17
2023-04-04T20:24:04.826Z,4.01
2023-04-04T20:26:51.058Z,4.25
2023-04-04T20:29:22.098Z,4.06
2023-04-04T20:31:53.143Z,4.21
2023-04-04T20:34:43.206Z,4.01
2023-04-04T20:37:17.485Z,4.01
2023-04-04T20:39:56.368Z,3.85
2023-04-04T20:42:26.199Z,4.42
2023-04-04T20:44:54.596Z,3.70
2023-04-04T20:47:47.483Z,4.01
2023-04-04T20:50:17.442Z,4.04
2023-04-04T20:52:55.674Z,3.76
2023-04-04T20:55:24.682Z,4.13
2023-04-04T20:57:53.838Z,4.03
2023-04-04T21:00:29.765Z,4.20
2023-04-04T21:02:59.574Z,4.10
2023-04-04T21:05:28.514Z,4.31
2023-04-04T21:07:55.324Z,3.72
2023-04-04T21:10:43.443Z,3.59
2023-04-04T21:13:10.531Z,4.04
2023-04-04T21:15:37.222Z,4.57
2023-04-04T21:18:11.541Z,4.94
2023-04-04T21:20:47.116Z,5.08
2023-04-04T21:23:25.658Z,5.60
2023-04-04T21:25:56.486Z,5.27
2023-04-04T21:28:36.452Z,5.60
2023-04-04T21:31:10.208Z,5.20
2023-04-04T21:33:36.924Z,5.46
2023-04-04T21:36:06.696Z,5.72
2023-04-04T21:38:35.126Z,5.96
2023-04-04T21:41:12.541Z,6.17
2023-04-04T21:43:39.255Z,6.24
2023-04-04T21:46:05.938Z,6.34
2023-04-04T21:48:32.612Z,5.48
2023-04-04T21:50:59.243Z,4.45
2023-04-04T21:53:25.852Z,4.50
2023-04-04T21:55:52.455Z,5.03
2023-04-04T21:58:19.077Z,5.07
2023-04-04T22:00:45.689Z,4.86
2023-04-04T22:03:12.352Z,4.75
2023-04-04T22:05:39.659Z,4.23
2023-04-04T22:08:06.868Z,4.51
2023-04-04T22:10:33.689Z,4.63
2023-04-04T22:13:00.437Z,4.53
2023-04-04T22:15:27.149Z,4.47
2023-04-04T22:17:53.748Z,4.41
2023-04-04T22:20:20.589Z,4.46
2023-04-04T22:22:47.266Z,3.95
2023-04-04T22:25:13.856Z,4.46
2023-04-04T22:27:40.486Z,3.92
2023-04-04T22:30:07.733Z,4.03
2023-04-04T22:32:34.428Z,3.95
2023-04-04T22:35:01.101Z,4.24
2023-04-04T22:37:28.538Z,4.07
2023-04-04T22:39:55.159Z,3.43
2023-04-04T22:42:21.821Z,2.63
2023-04-04T22:44:48.421Z,2.76
2023-04-04T22:47:15.030Z,2.28
2023-04-04T22:49:41.687Z,2.53
2023-04-04T22:52:08.311Z,2.36
2023-04-04T22:54:34.994Z,2.62
2023-04-04T22:57:01.631Z,2.34
2023-04-04T22:59:28.309Z,2.42
2023-04-04T23:01:55.114Z,2.23
2023-04-04T23:04:21.805Z,2.15
2023-04-04T23:06:49.324Z,2.09
2023-04-04T23:09:17.141Z,2.16
2023-04-04T23:11:43.971Z,1.96
2023-04-04T23:14:10.713Z,1.95
2023-04-04T23:16:38.081Z,1.84
2023-04-04T23:19:04.773Z,1.79
2023-04-04T23:21:31.416Z,1.76
2023-04-04T23:23:58.236Z,1.80
2023-04-04T23:26:24.923Z,1.84
2023-04-04T23:28:51.616Z,1.66
2023-04-04T23:31:18.285Z,1.79
2023-04-04T23:33:44.978Z,1.81
2023-04-04T23:36:11.908Z,1.68
2023-04-04T23:38:38.582Z,1.92
2023-04-04T23:41:05.823Z,1.85
2023-04-04T23:43:32.537Z,1.84
2023-04-04T23:45:59.202Z,1.80
2023-04-04T23:48:26.546Z,1.65
2023-04-04T23:50:53.404Z,1.78
2023-04-04T23:53:20.536Z,1.62
2023-04-04T23:55:47.210Z,1.77
2023-04-04T23:58:13.943Z,1.68
